Time;durP1;ratioP1;P1;durP2;ratioP2;P2;SDS_P1;SDS_P2;PMS_P1;PMS_P2;Temp;Humidity;BMP_temperature;BMP_pressure;BME280_temperature;BME280_humidity;BME280_pressure;Samples;Min_cycle;Max_cycle;Signal;HPM_P1;HPM_P2
2021/09/03 00:00:11;;;;;;;7.43;3.40;;;12.90;99.90;;;;;;5016709;28;20202;-68
2021/09/03 00:02:40;;;;;;;8.60;3.53;;;12.80;99.90;;;;;;5018986;28;20208;-67
2021/09/03 00:05:09;;;;;;;9.37;4.07;;;12.80;99.90;;;;;;5015857;28;20218;-69
2021/09/03 00:07:37;;;;;;;7.37;4.00;;;12.70;99.90;;;;;;5015692;28;20207;-67
2021/09/03 00:10:04;;;;;;;9.90;4.10;;;12.70;99.90;;;;;;5034991;28;20238;-67
2021/09/03 00:12:31;;;;;;;5.77;3.87;;;12.60;99.90;;;;;;5025224;28;20218;-67
2021/09/03 00:14:58;;;;;;;8.37;4.07;;;12.60;99.90;;;;;;5025392;28;20211;-68
2021/09/03 00:17:25;;;;;;;8.27;3.73;;;12.60;99.90;;;;;;5015541;28;20230;-68
2021/09/03 00:19:54;;;;;;;6.83;3.70;;;12.60;99.90;;;;;;5033053;28;20214;-67
2021/09/03 00:22:21;;;;;;;6.07;3.50;;;12.60;99.90;;;;;;5018573;28;20206;-67
2021/09/03 00:24:48;;;;;;;8.67;3.90;;;12.60;99.90;;;;;;5027677;28;20290;-67
2021/09/03 00:27:15;;;;;;;9.10;4.33;;;12.60;99.90;;;;;;5028052;28;20562;-67
2021/09/03 00:29:41;;;;;;;7.77;4.17;;;12.60;99.90;;;;;;5032769;28;20230;-68
2021/09/03 00:32:08;;;;;;;8.27;4.13;;;12.60;99.90;;;;;;5026442;28;20211;-68
2021/09/03 00:34:35;;;;;;;7.57;3.97;;;12.60;99.90;;;;;;5027624;28;20200;-66
2021/09/03 00:37:04;;;;;;;6.70;4.27;;;12.60;99.90;;;;;;5023787;28;20222;-67
2021/09/03 00:39:30;;;;;;;6.30;4.53;;;12.50;99.90;;;;;;5031887;28;20212;-66
2021/09/03 00:41:57;;;;;;;8.57;4.27;;;12.50;99.90;;;;;;5027795;28;20211;-66
2021/09/03 00:44:24;;;;;;;5.57;3.73;;;12.50;99.90;;;;;;5033965;28;20221;-67
2021/09/03 00:46:51;;;;;;;5.60;4.00;;;12.40;99.90;;;;;;5027762;28;20218;-66
2021/09/03 00:49:18;;;;;;;7.57;4.53;;;12.40;99.90;;;;;;5034720;28;20223;-66
2021/09/03 00:51:45;;;;;;;7.63;3.90;;;12.30;99.90;;;;;;5032861;28;20285;-66
2021/09/03 00:54:13;;;;;;;7.57;3.80;;;12.30;99.90;;;;;;5020815;28;20635;-65
2021/09/03 00:56:40;;;;;;;7.93;4.40;;;12.30;99.90;;;;;;5032720;28;20214;-65
2021/09/03 00:59:07;;;;;;;6.00;3.87;;;12.20;99.90;;;;;;5024805;28;20694;-65
2021/09/03 01:01:34;;;;;;;9.63;4.43;;;12.20;99.90;;;;;;5026682;28;20578;-66
2021/09/03 01:04:00;;;;;;;6.33;4.23;;;12.20;99.90;;;;;;5019166;28;20213;-66
2021/09/03 01:06:27;;;;;;;6.77;4.00;;;12.20;99.90;;;;;;5023949;28;20302;-65
2021/09/03 01:08:54;;;;;;;7.03;4.00;;;12.20;99.90;;;;;;5026063;28;20213;-66
2021/09/03 01:11:22;;;;;;;6.63;3.80;;;12.20;99.90;;;;;;5026688;28;20228;-67
2021/09/03 01:13:49;;;;;;;7.33;4.30;;;12.20;99.90;;;;;;5019259;28;20214;-67
2021/09/03 01:16:16;;;;;;;6.43;3.67;;;12.10;99.90;;;;;;5013891;28;20219;-65
2021/09/03 01:18:43;;;;;;;5.10;3.90;;;12.10;99.90;;;;;;5021285;28;20199;-66
2021/09/03 01:21:10;;;;;;;8.63;3.90;;;12.10;99.90;;;;;;5029631;28;20227;-66
2021/09/03 01:23:38;;;;;;;10.63;4.20;;;12.10;99.90;;;;;;5030722;28;20202;-66
2021/09/03 01:26:06;;;;;;;6.27;3.97;;;12.10;99.90;;;;;;5016205;28;20238;-66
2021/09/03 01:28:33;;;;;;;10.20;3.97;;;12.10;99.90;;;;;;5025437;28;20601;-66
2021/09/03 01:31:00;;;;;;;8.37;4.10;;;12.10;99.90;;;;;;5020920;28;20222;-65
2021/09/03 01:33:27;;;;;;;7.70;3.77;;;12.10;99.90;;;;;;5020713;28;20203;-66
2021/09/03 01:35:54;;;;;;;8.27;3.90;;;12.10;99.90;;;;;;5032631;28;20226;-66
2021/09/03 01:38:21;;;;;;;6.33;4.23;;;12.10;99.90;;;;;;5026733;28;20207;-65
2021/09/03 01:40:50;;;;;;;6.33;3.70;;;12.20;99.90;;;;;;5020465;28;20599;-66
2021/09/03 01:43:17;;;;;;;5.30;3.43;;;12.20;99.90;;;;;;5018943;28;20214;-66
2021/09/03 01:45:43;;;;;;;6.60;3.83;;;12.10;99.90;;;;;;5033001;28;20210;-66
2021/09/03 01:48:10;;;;;;;7.50;3.97;;;12.10;99.90;;;;;;5029054;28;20219;-65
2021/09/03 01:50:37;;;;;;;5.90;3.60;;;12.10;99.90;;;;;;5031212;28;20218;-65
2021/09/03 01:53:04;;;;;;;6.53;3.43;;;12.10;99.90;;;;;;5025374;28;20210;-65
2021/09/03 01:55:31;;;;;;;6.87;3.90;;;12.10;99.90;;;;;;5014246;28;20319;-66
2021/09/03 01:57:59;;;;;;;8.07;4.87;;;12.10;99.90;;;;;;5012723;28;20568;-66
2021/09/03 02:00:26;;;;;;;8.27;4.17;;;12.10;99.90;;;;;;5021953;28;20687;-66
2021/09/03 02:02:53;;;;;;;7.47;4.27;;;12.00;99.90;;;;;;5025513;28;20211;-66
2021/09/03 02:05:20;;;;;;;7.97;3.87;;;12.00;99.90;;;;;;5032033;28;20568;-66
2021/09/03 02:07:47;;;;;;;5.87;3.57;;;12.00;99.90;;;;;;5013255;28;20218;-67
2021/09/03 02:10:14;;;;;;;6.27;3.53;;;12.00;99.90;;;;;;5014734;28;20225;-66
2021/09/03 02:12:41;;;;;;;7.70;4.30;;;12.00;99.90;;;;;;5012810;28;20294;-66
2021/09/03 02:15:10;;;;;;;6.43;4.10;;;12.00;99.90;;;;;;5032268;28;20281;-66
2021/09/03 02:17:37;;;;;;;8.40;4.03;;;11.90;99.90;;;;;;5015455;28;20199;-66
2021/09/03 02:20:06;;;;;;;6.93;3.70;;;11.90;99.90;;;;;;5014539;28;20215;-66
2021/09/03 02:22:32;;;;;;;7.20;3.80;;;11.90;99.90;;;;;;5015885;28;20572;-66
2021/09/03 02:24:59;;;;;;;7.47;3.87;;;11.90;99.90;;;;;;5013207;28;20568;-66
2021/09/03 02:27:26;;;;;;;5.07;3.17;;;11.90;99.90;;;;;;5027030;28;20244;-66
2021/09/03 02:29:53;;;;;;;7.63;4.23;;;11.90;99.90;;;;;;5023491;28;20235;-66
2021/09/03 02:32:21;;;;;;;8.30;4.10;;;11.90;99.90;;;;;;5020832;28;20215;-66
2021/09/03 02:34:48;;;;;;;5.07;3.40;;;11.90;99.90;;;;;;5022519;28;20847;-66
2021/09/03 02:37:15;;;;;;;5.93;3.50;;;11.90;99.90;;;;;;5023593;28;20222;-66
2021/09/03 02:39:42;;;;;;;6.43;4.03;;;11.90;99.90;;;;;;5029652;28;20205;-66
2021/09/03 02:42:09;;;;;;;9.73;4.03;;;11.90;99.90;;;;;;5026848;28;20598;-66
2021/09/03 02:44:36;;;;;;;5.20;3.53;;;11.90;99.90;;;;;;5017447;28;20207;-67
2021/09/03 02:47:03;;;;;;;6.40;3.83;;;11.90;99.90;;;;;;5017398;28;20214;-66
2021/09/03 02:49:31;;;;;;;7.30;3.53;;;11.90;99.90;;;;;;5024855;28;20616;-66
2021/09/03 02:51:58;;;;;;;5.17;3.50;;;11.90;99.90;;;;;;5033155;28;20206;-66
2021/09/03 02:54:25;;;;;;;6.63;3.67;;;11.90;99.90;;;;;;5024474;28;20577;-66
2021/09/03 02:56:51;;;;;;;5.73;3.73;;;11.90;99.90;;;;;;5021032;28;20207;-67
2021/09/03 02:59:18;;;;;;;8.57;4.20;;;11.90;99.90;;;;;;5016352;28;20678;-66
2021/09/03 03:01:45;;;;;;;8.40;3.53;;;12.00;99.90;;;;;;5030548;28;20278;-67
2021/09/03 03:04:12;;;;;;;8.90;4.30;;;12.00;99.90;;;;;;5022730;28;20229;-66
2021/09/03 03:06:40;;;;;;;9.60;4.23;;;11.90;99.90;;;;;;5016371;28;20207;-67
2021/09/03 03:09:07;;;;;;;8.47;4.97;;;11.90;99.90;;;;;;5029674;28;20211;-66
2021/09/03 03:11:33;;;;;;;9.00;4.87;;;11.80;99.90;;;;;;5031002;28;20234;-66
2021/09/03 03:14:04;;;;;;;9.43;4.83;;;11.90;99.90;;;;;;5021373;28;20215;-66
2021/09/03 03:16:32;;;;;;;9.60;4.90;;;11.90;99.90;;;;;;5027294;28;20246;-66
2021/09/03 03:18:59;;;;;;;7.37;4.80;;;11.90;99.90;;;;;;5029137;28;20203;-66
2021/09/03 03:21:26;;;;;;;10.10;5.37;;;11.80;99.90;;;;;;5035123;28;20202;-65
2021/09/03 03:23:54;;;;;;;11.43;4.97;;;11.80;99.90;;;;;;5035202;28;20218;-65
2021/09/03 03:26:21;;;;;;;9.83;4.77;;;11.80;99.90;;;;;;5016396;28;20291;-66
2021/09/03 03:28:48;;;;;;;8.37;4.60;;;11.80;99.90;;;;;;5027386;28;20210;-66
2021/09/03 03:31:14;;;;;;;10.23;5.33;;;11.80;99.90;;;;;;5026677;28;20229;-66
2021/09/03 03:33:41;;;;;;;8.00;4.90;;;11.80;99.90;;;;;;5020048;28;20207;-66
2021/09/03 03:36:08;;;;;;;9.17;5.03;;;11.70;99.90;;;;;;5020967;28;20712;-66
2021/09/03 03:38:35;;;;;;;12.67;5.63;;;11.80;99.90;;;;;;5026850;28;20207;-66
2021/09/03 03:41:03;;;;;;;9.83;5.10;;;11.70;99.90;;;;;;5026319;28;20223;-66
2021/09/03 03:43:29;;;;;;;17.13;5.57;;;11.70;99.90;;;;;;5025698;28;20203;-65
2021/09/03 03:45:56;;;;;;;9.30;5.10;;;11.70;99.90;;;;;;5028118;28;20219;-66
2021/09/03 03:48:26;;;;;;;8.20;4.87;;;11.70;99.90;;;;;;5021626;28;20206;-66
2021/09/03 03:50:52;;;;;;;9.30;5.63;;;11.70;99.90;;;;;;5033255;28;20230;-65
2021/09/03 03:53:19;;;;;;;9.10;5.30;;;11.70;99.90;;;;;;5021737;28;20215;-67
2021/09/03 03:55:46;;;;;;;7.23;4.97;;;11.80;99.90;;;;;;5015866;28;20207;-66
2021/09/03 03:58:14;;;;;;;9.07;5.13;;;11.70;99.90;;;;;;5036134;28;20228;-66
2021/09/03 04:00:41;;;;;;;12.63;5.70;;;11.80;99.90;;;;;;5028447;28;20500;-66
2021/09/03 04:03:08;;;;;;;9.10;5.13;;;11.80;99.90;;;;;;5025161;28;20303;-66
2021/09/03 04:05:35;;;;;;;8.13;5.50;;;11.80;99.90;;;;;;5015861;28;20234;-67
2021/09/03 04:08:02;;;;;;;11.70;5.43;;;11.80;99.90;;;;;;5023118;28;20610;-66
2021/09/03 04:10:28;;;;;;;10.73;5.07;;;11.80;99.90;;;;;;5026139;28;20222;-67
2021/09/03 04:12:55;;;;;;;9.27;6.07;;;11.80;99.90;;;;;;5028642;28;20215;-67
2021/09/03 04:15:24;;;;;;;8.83;4.70;;;11.80;99.90;;;;;;5028772;28;20212;-66
2021/09/03 04:17:50;;;;;;;10.53;4.60;;;11.80;99.90;;;;;;5020898;28;20199;-65
2021/09/03 04:20:18;;;;;;;10.83;5.27;;;11.80;99.90;;;;;;5027788;28;20237;-66
2021/09/03 04:22:45;;;;;;;12.07;5.17;;;11.90;99.90;;;;;;5029809;28;20298;-67
2021/09/03 04:25:12;;;;;;;8.27;4.73;;;11.80;99.90;;;;;;5014605;28;20226;-66
2021/09/03 04:27:41;;;;;;;6.23;4.43;;;11.80;99.90;;;;;;5018989;28;20674;-66
2021/09/03 04:30:10;;;;;;;7.83;4.90;;;11.80;99.90;;;;;;5028373;28;20202;-66
2021/09/03 04:32:39;;;;;;;11.10;5.10;;;11.80;99.90;;;;;;5020587;28;20260;-66
2021/09/03 04:35:07;;;;;;;7.37;4.20;;;11.80;99.90;;;;;;5023682;28;20207;-66
2021/09/03 04:37:40;;;;;;;8.07;4.70;;;11.90;99.90;;;;;;5028372;28;20705;-66
2021/09/03 04:40:08;;;;;;;9.40;4.90;;;11.90;99.90;;;;;;5017086;28;20242;-66
2021/09/03 04:42:35;;;;;;;9.97;4.43;;;11.90;99.90;;;;;;5021374;28;20302;-66
2021/09/03 04:45:02;;;;;;;9.93;5.10;;;12.00;99.90;;;;;;5019150;28;20657;-66
2021/09/03 04:47:29;;;;;;;9.93;4.20;;;12.00;99.90;;;;;;5026164;28;20206;-66
2021/09/03 04:49:57;;;;;;;7.93;4.53;;;12.00;99.90;;;;;;5026546;28;20203;-66
2021/09/03 04:52:24;;;;;;;8.70;4.47;;;12.10;99.90;;;;;;5027606;28;20248;-66
2021/09/03 04:54:50;;;;;;;9.70;4.33;;;12.20;99.90;;;;;;5021561;28;20223;-66
2021/09/03 04:57:17;;;;;;;7.80;4.73;;;12.20;99.90;;;;;;5030189;28;20220;-67
2021/09/03 04:59:44;;;;;;;9.87;4.43;;;12.30;99.90;;;;;;5023837;28;20218;-66
2021/09/03 05:02:11;;;;;;;8.53;4.53;;;12.30;99.90;;;;;;5027880;28;20207;-67
2021/09/03 05:04:37;;;;;;;7.03;4.33;;;12.30;99.90;;;;;;5032744;28;20242;-66
2021/09/03 05:07:06;;;;;;;9.83;4.73;;;12.40;99.90;;;;;;5019640;28;20218;-66
2021/09/03 05:09:32;;;;;;;9.37;4.33;;;12.40;99.90;;;;;;5026651;28;20218;-66
2021/09/03 05:11:59;;;;;;;10.87;4.50;;;12.50;99.90;;;;;;5028436;28;20218;-65
2021/09/03 05:14:26;;;;;;;12.53;4.37;;;12.50;99.90;;;;;;5023576;28;20207;-66
2021/09/03 05:16:53;;;;;;;8.27;4.20;;;12.60;99.90;;;;;;5022977;28;20670;-66
2021/09/03 05:19:20;;;;;;;8.37;3.87;;;12.70;99.90;;;;;;5025192;28;20664;-64
2021/09/03 05:21:46;;;;;;;8.43;4.23;;;12.80;99.90;;;;;;5030202;28;20198;-67
2021/09/03 05:24:15;;;;;;;6.67;4.00;;;12.80;99.90;;;;;;5039245;28;20210;-68
2021/09/03 05:26:42;;;;;;;4.87;3.33;;;13.00;99.90;;;;;;5030187;28;20217;-68
2021/09/03 05:29:08;;;;;;;8.63;3.80;;;13.10;99.90;;;;;;5035306;28;20222;-69
2021/09/03 05:31:35;;;;;;;7.70;3.73;;;13.10;99.90;;;;;;5033414;28;20230;-70
2021/09/03 05:34:02;;;;;;;6.23;3.23;;;13.20;99.90;;;;;;5033434;28;20209;-66
2021/09/03 05:36:29;;;;;;;5.00;3.70;;;13.30;99.90;;;;;;5032862;28;20362;-68
2021/09/03 05:38:56;;;;;;;7.97;3.97;;;13.40;99.90;;;;;;5016436;28;20214;-66
2021/09/03 05:41:24;;;;;;;10.97;4.00;;;13.50;99.90;;;;;;5028163;28;20234;-67
2021/09/03 05:43:51;;;;;;;9.13;4.03;;;13.60;99.90;;;;;;5032714;28;20206;-67
2021/09/03 05:46:17;;;;;;;7.00;3.80;;;13.60;99.90;;;;;;5033521;28;20210;-65
2021/09/03 05:48:44;;;;;;;6.27;3.47;;;13.70;99.90;;;;;;5032462;28;20211;-66
2021/09/03 05:51:11;;;;;;;8.90;3.87;;;13.80;99.90;;;;;;5031689;28;20702;-66
2021/09/03 05:53:38;;;;;;;8.67;3.93;;;13.90;99.90;;;;;;5015868;28;20219;-65
2021/09/03 05:56:06;;;;;;;9.90;3.17;;;14.00;99.90;;;;;;5020571;28;20310;-66
2021/09/03 05:58:36;;;;;;;8.20;3.83;;;14.00;99.90;;;;;;5032070;28;20202;-66
2021/09/03 06:01:03;;;;;;;8.50;3.47;;;14.10;99.90;;;;;;5013123;28;20583;-68
2021/09/03 06:03:29;;;;;;;6.43;3.57;;;14.20;99.90;;;;;;5024624;28;20213;-67
2021/09/03 06:05:56;;;;;;;7.70;3.10;;;14.30;99.90;;;;;;5036382;28;20635;-68
2021/09/03 06:08:23;;;;;;;5.73;3.37;;;14.40;99.90;;;;;;5024996;28;20271;-68
2021/09/03 06:10:50;;;;;;;6.73;3.53;;;14.40;99.90;;;;;;5019717;28;20282;-67
2021/09/03 06:13:17;;;;;;;5.80;2.90;;;14.50;99.90;;;;;;5023976;28;20332;-68
2021/09/03 06:15:45;;;;;;;7.77;3.13;;;14.60;99.90;;;;;;5027151;28;20579;-67
2021/09/03 06:18:12;;;;;;;5.93;3.37;;;14.70;99.90;;;;;;5025499;28;20213;-68
2021/09/03 06:20:39;;;;;;;5.00;2.70;;;14.90;99.90;;;;;;5032926;28;20211;-67
2021/09/03 06:23:06;;;;;;;7.23;3.10;;;14.90;99.90;;;;;;5034037;28;20217;-68
2021/09/03 06:25:33;;;;;;;7.40;3.20;;;15.00;99.90;;;;;;5027369;28;20574;-68
2021/09/03 06:28:00;;;;;;;6.20;3.77;;;15.10;99.90;;;;;;5030171;28;20210;-68
2021/09/03 06:30:26;;;;;;;7.77;3.33;;;15.20;99.90;;;;;;5032906;28;20241;-69
2021/09/03 06:32:55;;;;;;;5.13;3.13;;;15.20;99.90;;;;;;5031760;28;20618;-69
2021/09/03 06:35:21;;;;;;;5.70;2.90;;;15.30;99.90;;;;;;5025815;28;20206;-67
2021/09/03 06:37:48;;;;;;;5.43;2.80;;;15.40;99.90;;;;;;5033138;28;20233;-70
2021/09/03 06:40:15;;;;;;;4.80;2.93;;;15.50;99.90;;;;;;5034252;28;20230;-70
2021/09/03 06:42:42;;;;;;;3.83;2.57;;;15.50;99.90;;;;;;5032711;28;20649;-67
2021/09/03 06:45:11;;;;;;;5.63;2.80;;;15.50;99.90;;;;;;5033431;28;20234;-68
2021/09/03 06:47:38;;;;;;;7.20;2.93;;;15.60;99.90;;;;;;5033522;28;20670;-68
2021/09/03 06:50:07;;;;;;;6.10;3.30;;;15.70;99.90;;;;;;5032417;28;20628;-68
2021/09/03 06:52:34;;;;;;;5.10;2.73;;;15.80;99.90;;;;;;5026060;28;20226;-69
2021/09/03 06:55:03;;;;;;;4.03;2.43;;;15.90;99.90;;;;;;5027438;28;20229;-69
2021/09/03 06:57:30;;;;;;;6.47;2.60;;;16.00;99.90;;;;;;5023809;28;20207;-68
2021/09/03 06:59:57;;;;;;;7.33;2.83;;;16.00;99.90;;;;;;5032508;28;20203;-67
2021/09/03 07:02:24;;;;;;;3.83;2.20;;;16.10;99.90;;;;;;5028416;28;20199;-67
2021/09/03 07:04:50;;;;;;;4.97;2.50;;;16.10;99.90;;;;;;5032312;28;20215;-68
2021/09/03 07:07:19;;;;;;;7.27;2.67;;;16.30;99.90;;;;;;5026720;28;20206;-68
2021/09/03 07:09:45;;;;;;;4.47;2.53;;;16.40;99.90;;;;;;5020946;28;20199;-69
2021/09/03 07:12:13;;;;;;;4.70;2.63;;;16.40;99.90;;;;;;5032961;28;20234;-69
2021/09/03 07:14:40;;;;;;;4.03;2.70;;;16.50;99.90;;;;;;5025277;28;20203;-69
2021/09/03 07:17:07;;;;;;;5.60;2.23;;;16.60;99.90;;;;;;5023197;28;20246;-70
2021/09/03 07:19:35;;;;;;;4.13;2.50;;;16.70;99.90;;;;;;5012606;28;20616;-69
2021/09/03 07:22:02;;;;;;;7.27;2.13;;;16.80;99.90;;;;;;5025471;28;20636;-69
2021/09/03 07:24:31;;;;;;;4.07;2.10;;;17.00;99.90;;;;;;5020428;28;20530;-69
2021/09/03 07:26:58;;;;;;;4.90;2.70;;;17.10;99.90;;;;;;5029447;28;20574;-69
2021/09/03 07:29:25;;;;;;;3.63;2.20;;;17.20;99.90;;;;;;5031182;28;20694;-70
2021/09/03 07:31:53;;;;;;;3.63;2.23;;;17.30;99.90;;;;;;5035692;28;20223;-69
2021/09/03 07:34:20;;;;;;;4.33;2.20;;;17.50;99.90;;;;;;5034720;28;20211;-68
2021/09/03 07:36:47;;;;;;;4.10;2.00;;;17.60;99.90;;;;;;5030546;28;20223;-69
2021/09/03 07:39:17;;;;;;;3.93;2.20;;;18.50;99.90;;;;;;5027861;28;20211;-67
2021/09/03 07:41:46;;;;;;;4.57;2.13;;;17.70;99.90;;;;;;5033055;28;20238;-69
2021/09/03 07:44:13;;;;;;;3.70;1.70;;;17.90;99.90;;;;;;5028244;28;20210;-68
2021/09/03 07:46:40;;;;;;;2.87;1.90;;;18.10;99.90;;;;;;5036120;28;20221;-68
2021/09/03 07:49:07;;;;;;;3.17;1.90;;;18.20;99.90;;;;;;5033256;28;20230;-67
2021/09/03 07:51:34;;;;;;;3.27;1.80;;;18.30;99.90;;;;;;5035608;28;20222;-68
2021/09/03 07:54:01;;;;;;;2.17;1.67;;;18.30;99.90;;;;;;5035645;28;20207;-69
2021/09/03 07:56:28;;;;;;;2.50;2.00;;;18.40;99.90;;;;;;5024581;28;20211;-69
2021/09/03 07:58:56;;;;;;;8.87;1.93;;;18.50;99.90;;;;;;5019400;28;20578;-69
2021/09/03 08:01:22;;;;;;;3.38;1.60;;;18.70;99.90;;;;;;5018573;28;20210;-68
2021/09/03 08:03:49;;;;;;;3.63;1.95;;;18.80;99.90;;;;;;5033173;28;20236;-69
2021/09/03 08:06:16;;;;;;;5.20;1.70;;;18.90;99.90;;;;;;5022494;28;20222;-68
2021/09/03 08:08:43;;;;;;;3.33;1.67;;;19.00;99.90;;;;;;5034522;28;20610;-69
2021/09/03 08:11:10;;;;;;;3.72;1.83;;;19.10;99.60;;;;;;5025537;28;20686;-72
2021/09/03 08:13:36;;;;;;;4.55;1.95;;;19.20;99.20;;;;;;5033516;28;20651;-68
2021/09/03 08:16:05;;;;;;;1.98;1.63;;;19.30;98.70;;;;;;5032405;28;20215;-71
2021/09/03 08:18:32;;;;;;;2.15;1.50;;;19.40;98.00;;;;;;5037161;28;20205;-69
2021/09/03 08:20:59;;;;;;;2.65;1.20;;;19.50;97.60;;;;;;5032475;28;20222;-68
2021/09/03 08:23:27;;;;;;;3.45;2.20;;;19.50;97.20;;;;;;5031586;28;20203;-68
2021/09/03 08:25:54;;;;;;;1.90;1.40;;;19.70;97.10;;;;;;5023610;28;20210;-69
2021/09/03 08:28:20;;;;;;;1.67;1.30;;;19.80;96.80;;;;;;5022724;28;20203;-70
2021/09/03 08:30:47;;;;;;;2.10;1.15;;;19.90;96.10;;;;;;5035037;28;20202;-72
2021/09/03 08:33:15;;;;;;;2.08;1.42;;;20.00;95.60;;;;;;5021568;28;20265;-70
2021/09/03 08:35:42;;;;;;;4.38;1.42;;;20.10;95.20;;;;;;5034320;28;20211;-68
2021/09/03 08:38:09;;;;;;;2.13;1.33;;;20.10;95.30;;;;;;5034678;28;20227;-71
2021/09/03 08:40:37;;;;;;;2.10;1.10;;;20.20;94.90;;;;;;5033563;28;20678;-70
2021/09/03 08:43:05;;;;;;;1.23;1.10;;;20.40;94.70;;;;;;5035199;28;20947;-71
2021/09/03 08:45:32;;;;;;;3.25;1.40;;;20.50;94.10;;;;;;5022750;28;20707;-69
2021/09/03 08:48:00;;;;;;;2.42;1.38;;;20.50;93.60;;;;;;5022840;28;20275;-68
2021/09/03 08:50:28;;;;;;;1.27;1.00;;;20.70;93.60;;;;;;5022028;28;20211;-68
2021/09/03 08:52:56;;;;;;;1.27;0.95;;;20.80;93.40;;;;;;5024807;28;20236;-68
2021/09/03 08:55:22;;;;;;;1.17;1.00;;;20.90;92.90;;;;;;5033352;28;20202;-67
2021/09/03 08:57:49;;;;;;;2.58;1.13;;;21.00;92.40;;;;;;5025361;28;20298;-68
2021/09/03 09:00:23;;;;;;;2.63;1.45;;;21.10;92.00;;;;;;5031110;28;20971;-70
2021/09/03 09:03:01;;;;;;;1.83;1.40;;;21.20;91.90;;;;;;5024325;28;20195;-69
2021/09/03 09:05:49;;;;;;;2.33;1.10;;;21.40;92.30;;;;;;5032675;28;20252;-69
2021/09/03 09:08:18;;;;;;;4.40;1.48;;;21.70;91.50;;;;;;5032521;28;20757;-70
2021/09/03 09:10:47;;;;;;;2.38;1.15;;;21.80;90.90;;;;;;5033170;28;20233;-68
2021/09/03 09:13:15;;;;;;;1.08;0.90;;;22.00;90.50;;;;;;5033794;28;20226;-71
2021/09/03 09:15:42;;;;;;;1.42;1.27;;;22.10;90.40;;;;;;5032057;28;20202;-67
2021/09/03 09:18:09;;;;;;;1.38;1.05;;;22.30;90.10;;;;;;5027268;28;20217;-67
2021/09/03 09:20:36;;;;;;;1.20;1.10;;;22.40;88.20;;;;;;5031711;28;20207;-67
2021/09/03 09:23:04;;;;;;;3.65;1.10;;;22.60;87.90;;;;;;5033154;28;20205;-68
2021/09/03 09:25:34;;;;;;;2.40;1.20;;;22.80;86.80;;;;;;5032689;28;20994;-68
2021/09/03 09:28:19;;;;;;;1.25;0.90;;;22.90;85.80;;;;;;5030804;28;20566;-69
2021/09/03 09:30:47;;;;;;;2.58;1.27;;;23.00;84.10;;;;;;5026958;28;20210;-68
2021/09/03 09:33:16;;;;;;;1.40;1.27;;;23.20;83.90;;;;;;5027223;28;20222;-69
2021/09/03 09:35:46;;;;;;;1.20;1.08;;;23.30;82.80;;;;;;5028666;28;20210;-68
2021/09/03 09:38:15;;;;;;;1.10;1.00;;;23.40;81.50;;;;;;5023286;28;20221;-69
2021/09/03 09:40:47;;;;;;;1.17;0.82;;;23.50;79.20;;;;;;5023212;28;20233;-66
2021/09/03 09:43:25;;;;;;;1.20;1.00;;;23.60;78.30;;;;;;5031356;28;20202;-67
2021/09/03 09:46:10;;;;;;;2.40;1.38;;;23.70;75.80;;;;;;5024905;28;20206;-67
2021/09/03 09:49:00;;;;;;;1.35;0.90;;;23.90;74.20;;;;;;5030852;28;20298;-68
2021/09/03 09:51:29;;;;;;;1.42;1.00;;;24.10;74.60;;;;;;5032160;28;20207;-67
2021/09/03 09:53:59;;;;;;;1.05;0.95;;;24.30;75.00;;;;;;5031006;28;20226;-67
2021/09/03 09:56:27;;;;;;;2.83;1.17;;;24.50;74.70;;;;;;5030801;28;20211;-68
2021/09/03 09:58:55;;;;;;;0.90;0.82;;;24.70;72.80;;;;;;5015104;28;20531;-69
2021/09/03 10:01:23;;;;;;;3.75;1.25;;;24.70;71.20;;;;;;5012589;28;20222;-69
2021/09/03 10:03:52;;;;;;;2.08;1.30;;;24.70;71.00;;;;;;5025596;28;20621;-68
2021/09/03 10:06:21;;;;;;;1.95;1.33;;;24.80;71.00;;;;;;5020448;28;20871;-68
2021/09/03 10:08:49;;;;;;;5.00;1.30;;;24.80;70.20;;;;;;5017177;28;20233;-67
2021/09/03 10:11:18;;;;;;;2.22;1.65;;;24.90;70.20;;;;;;5023301;28;20214;-68
2021/09/03 10:13:45;;;;;;;2.30;1.45;;;24.90;70.10;;;;;;5024202;28;20245;-68
2021/09/03 10:16:13;;;;;;;2.95;1.52;;;25.00;70.80;;;;;;5026906;28;20211;-66
2021/09/03 10:18:41;;;;;;;2.25;1.73;;;25.10;69.60;;;;;;5022870;28;20678;-67
2021/09/03 10:21:08;;;;;;;1.92;1.73;;;25.00;69.50;;;;;;5021063;28;20221;-67
2021/09/03 10:23:49;;;;;;;1.80;1.60;;;25.10;69.30;;;;;;5015033;28;20195;-68
2021/09/03 10:26:20;;;;;;;2.35;1.80;;;25.10;68.90;;;;;;5018858;28;20237;-68
2021/09/03 10:28:47;;;;;;;2.20;1.90;;;25.10;69.80;;;;;;5015968;28;20207;-68
2021/09/03 10:31:18;;;;;;;1.90;1.70;;;25.30;69.00;;;;;;5017260;28;20199;-68
2021/09/03 10:33:47;;;;;;;3.38;2.00;;;25.30;68.40;;;;;;5011580;28;20227;-67
2021/09/03 10:36:14;;;;;;;2.75;1.88;;;25.50;69.00;;;;;;5020666;28;20637;-69
2021/09/03 10:38:44;;;;;;;2.58;2.15;;;25.50;68.10;;;;;;5020736;28;20238;-68
2021/09/03 10:41:48;;;;;;;2.50;1.92;;;25.60;68.80;;;;;;5019174;28;20293;-68
2021/09/03 10:44:15;;;;;;;2.83;2.30;;;25.60;68.40;;;;;;5028100;28;20674;-67
2021/09/03 10:46:44;;;;;;;7.47;2.15;;;25.60;67.60;;;;;;5032190;28;20206;-69
2021/09/03 10:49:11;;;;;;;2.63;2.25;;;25.60;67.80;;;;;;5030748;28;20226;-68
2021/09/03 10:51:39;;;;;;;3.10;1.98;;;25.80;67.40;;;;;;5031489;28;20202;-68
2021/09/03 10:54:15;;;;;;;2.97;2.10;;;25.90;66.90;;;;;;5011195;28;20233;-67
2021/09/03 10:56:56;;;;;;;2.42;2.10;;;26.00;66.60;;;;;;5020548;28;20206;-68
2021/09/03 10:59:25;;;;;;;3.67;2.47;;;26.00;67.30;;;;;;5033215;28;20444;-67
2021/09/03 11:01:56;;;;;;;3.63;1.95;;;26.00;67.30;;;;;;5035027;28;20214;-67
2021/09/03 11:04:24;;;;;;;5.32;2.50;;;26.10;67.60;;;;;;5027962;28;20196;-67
2021/09/03 11:07:14;;;;;;;4.93;2.20;;;26.10;67.20;;;;;;5019457;28;20214;-69
2021/09/03 11:09:46;;;;;;;3.38;2.58;;;26.10;67.30;;;;;;5024136;28;20207;-68
2021/09/03 11:12:16;;;;;;;3.05;2.20;;;26.00;67.50;;;;;;5030689;28;20297;-68
2021/09/03 11:14:43;;;;;;;3.28;2.63;;;26.10;67.80;;;;;;5026633;28;20589;-68
2021/09/03 11:17:12;;;;;;;3.03;2.55;;;26.10;67.90;;;;;;5025382;28;20203;-68
2021/09/03 11:19:40;;;;;;;5.05;2.38;;;26.20;67.70;;;;;;5026160;28;20214;-68
2021/09/03 11:22:10;;;;;;;4.28;2.53;;;26.30;68.30;;;;;;5027211;28;20337;-68
2021/09/03 11:24:38;;;;;;;4.57;2.60;;;26.50;68.20;;;;;;5023449;28;20308;-68
2021/09/03 11:27:07;;;;;;;6.18;2.40;;;26.60;67.70;;;;;;5031917;28;20542;-68
2021/09/03 11:29:42;;;;;;;2.70;2.33;;;26.70;67.20;;;;;;5032758;28;20214;-69
2021/09/03 11:32:11;;;;;;;3.28;2.70;;;26.90;66.50;;;;;;5033255;28;20316;-69
2021/09/03 11:35:00;;;;;;;4.53;2.20;;;26.90;65.50;;;;;;5033879;28;20213;-68
2021/09/03 11:37:31;;;;;;;2.78;2.40;;;26.80;65.70;;;;;;5033507;28;20604;-68
2021/09/03 11:40:04;;;;;;;4.43;2.42;;;26.90;65.00;;;;;;5034043;28;20282;-68
2021/09/03 11:42:32;;;;;;;3.83;2.17;;;26.90;64.60;;;;;;5032507;28;20217;-69
2021/09/03 11:45:03;;;;;;;3.28;2.40;;;26.90;64.50;;;;;;5033691;28;20600;-68
2021/09/03 11:47:35;;;;;;;3.92;2.50;;;27.00;63.70;;;;;;5033431;28;20206;-68
2021/09/03 11:50:03;;;;;;;3.53;2.35;;;27.00;64.50;;;;;;5031571;28;20280;-68
2021/09/03 11:52:32;;;;;;;2.67;2.05;;;27.10;64.20;;;;;;5029195;28;20211;-67
2021/09/03 11:55:00;;;;;;;5.28;2.63;;;27.20;63.90;;;;;;5029431;28;20202;-66
2021/09/03 11:57:28;;;;;;;3.20;2.90;;;27.20;63.60;;;;;;5027101;28;20678;-69
2021/09/03 11:59:56;;;;;;;4.35;2.50;;;27.20;63.20;;;;;;5031213;28;20211;-66
2021/09/03 12:02:26;;;;;;;3.22;2.65;;;26.90;63.50;;;;;;5034410;28;20203;-67
2021/09/03 12:04:54;;;;;;;3.78;2.70;;;26.80;64.50;;;;;;5018497;28;20207;-68
2021/09/03 12:07:22;;;;;;;6.03;2.67;;;26.80;64.30;;;;;;5019245;28;20226;-69
2021/09/03 12:09:53;;;;;;;2.63;2.40;;;26.90;63.90;;;;;;5023505;28;20211;-68
2021/09/03 12:12:25;;;;;;;3.13;1.88;;;26.80;63.30;;;;;;5033194;28;20211;-69
2021/09/03 12:14:59;;;;;;;2.67;2.33;;;26.80;63.20;;;;;;5028693;28;20207;-66
2021/09/03 12:17:43;;;;;;;2.60;2.40;;;26.80;62.80;;;;;;5025430;28;20682;-67
2021/09/03 12:20:17;;;;;;;5.82;2.33;;;26.70;62.80;;;;;;5027789;28;20765;-68
2021/09/03 12:22:48;;;;;;;3.35;2.33;;;26.80;63.80;;;;;;5015731;28;20203;-68
2021/09/03 12:25:16;;;;;;;3.58;2.13;;;26.80;63.20;;;;;;5033077;28;20543;-68
2021/09/03 12:27:42;;;;;;;2.85;2.35;;;26.80;63.20;;;;;;5031641;28;20215;-68
2021/09/03 12:30:11;;;;;;;4.68;2.40;;;26.80;62.80;;;;;;5028000;28;20202;-68
2021/09/03 12:32:37;;;;;;;3.65;2.60;;;26.80;62.90;;;;;;5033389;28;20209;-67
2021/09/03 12:35:10;;;;;;;3.55;2.63;;;26.70;64.60;;;;;;5034131;28;20210;-68
2021/09/03 12:37:38;;;;;;;3.88;2.22;;;26.80;63.00;;;;;;5034264;28;20231;-68
2021/09/03 12:40:07;;;;;;;3.72;2.20;;;26.80;62.40;;;;;;5032690;28;20217;-68
2021/09/03 12:42:39;;;;;;;5.65;2.20;;;26.80;62.10;;;;;;5033806;28;20202;-68
2021/09/03 12:45:07;;;;;;;2.85;2.53;;;26.80;62.10;;;;;;5033673;28;20621;-65
2021/09/03 12:47:35;;;;;;;4.28;2.00;;;26.70;62.50;;;;;;5019805;28;20213;-68
2021/09/03 12:50:12;;;;;;;3.33;2.20;;;26.60;62.50;;;;;;5032808;28;20492;-69